createdAt,value
2023-01-17T00:01:27.450Z,98491.81
2023-01-17T00:03:30.995Z,98483.06
2023-01-17T00:05:52.611Z,98492.44
2023-01-17T00:08:13.329Z,98488.75
2023-01-17T00:10:20.600Z,98481.63
2023-01-17T00:12:26.469Z,98480.72
2023-01-17T00:14:30.030Z,98490.94
2023-01-17T00:16:33.559Z,98481.44
2023-01-17T00:18:37.011Z,98485.56
2023-01-17T00:20:57.625Z,98491.72
2023-01-17T00:23:18.889Z,98484.16
2023-01-17T00:25:44.356Z,98482.72
2023-01-17T00:27:46.740Z,98487.34
2023-01-17T00:29:49.053Z,98483.06
2023-01-17T00:31:51.434Z,98483.06
2023-01-17T00:33:53.792Z,98481.41
2023-01-17T00:35:57.795Z,98480.63
2023-01-17T00:38:05.319Z,98479.81
2023-01-17T00:40:08.876Z,98482.41
2023-01-17T00:42:12.680Z,98481.63
2023-01-17T00:44:33.489Z,98480.31
2023-01-17T00:46:54.573Z,98480.66
2023-01-17T00:49:15.464Z,98477.19
2023-01-17T00:51:36.642Z,98479.78
2023-01-17T00:53:57.271Z,98473.78
2023-01-17T00:56:19.940Z,98478.97
2023-01-17T00:58:42.234Z,98481.56
2023-01-17T01:01:03.423Z,98484.09
2023-01-17T01:03:27.722Z,98477.97
2023-01-17T01:05:48.944Z,98475.44
2023-01-17T01:08:09.738Z,98473.69
2023-01-17T01:10:30.627Z,98467.72
2023-01-17T01:12:51.641Z,98469.56
2023-01-17T01:15:14.573Z,98469.56
2023-01-17T01:17:35.158Z,98463.50
2023-01-17T01:19:55.899Z,98462.69
2023-01-17T01:22:16.644Z,98460.00
2023-01-17T01:24:37.697Z,98460.88
2023-01-17T01:26:58.863Z,98466.97
2023-01-17T01:29:19.618Z,98465.19
2023-01-17T01:31:42.513Z,98473.09
2023-01-17T01:33:46.050Z,98469.91
2023-01-17T01:35:51.780Z,98472.66
2023-01-17T01:37:55.474Z,98473.75
2023-01-17T01:39:59.212Z,98472.25
2023-01-17T01:42:02.731Z,98473.06
2023-01-17T01:44:06.949Z,98466.13
2023-01-17T01:46:12.966Z,98466.88
2023-01-17T01:48:35.231Z,98466.88
2023-01-17T01:50:39.179Z,98473.75
2023-01-17T01:52:46.191Z,98465.97
2023-01-17T01:54:55.252Z,98466.88
2023-01-17T01:57:02.562Z,98467.81
2023-01-17T01:59:11.414Z,98466.88
2023-01-17T02:01:16.177Z,98467.66
2023-01-17T02:03:25.021Z,98471.06
2023-01-17T02:05:30.785Z,98470.25
2023-01-17T02:07:40.033Z,98469.38
2023-01-17T02:09:44.026Z,98468.66
2023-01-17T02:11:50.184Z,98473.94
2023-01-17T02:13:53.808Z,98482.63
2023-01-17T02:16:04.419Z,98477.53
2023-01-17T02:18:18.015Z,98477.63
2023-01-17T02:20:50.447Z,98490.59
2023-01-17T02:23:24.709Z,98492.44
2023-01-17T02:25:55.592Z,98489.09
2023-01-17T02:28:19.701Z,98493.50
2023-01-17T02:30:44.182Z,98487.56
2023-01-17T02:33:02.607Z,98488.66
2023-01-17T02:35:15.445Z,98494.00
2023-01-17T02:37:24.723Z,98494.00
2023-01-17T02:39:34.382Z,98489.66
2023-01-17T02:41:40.517Z,98491.41
2023-01-17T02:43:47.136Z,98482.78
2023-01-17T02:45:52.267Z,98484.47
2023-01-17T02:47:55.883Z,98493.25
2023-01-17T02:50:04.504Z,98486.28
2023-01-17T02:52:26.575Z,98478.56
2023-01-17T02:55:05.221Z,98490.81
2023-01-17T02:57:31.372Z,98488.31
2023-01-17T02:59:42.410Z,98496.16
2023-01-17T03:02:00.286Z,98490.22
2023-01-17T03:04:09.934Z,98494.63
2023-01-17T03:06:16.806Z,98490.38
2023-01-17T03:08:21.820Z,98493.13
2023-01-17T03:10:26.465Z,98487.94
2023-01-17T03:12:31.012Z,98492.38
2023-01-17T03:14:34.769Z,98492.22
2023-01-17T03:16:38.549Z,98494.63
2023-01-17T03:18:43.897Z,98487.53
2023-01-17T03:20:47.750Z,98486.63
2023-01-17T03:22:51.661Z,98487.28
2023-01-17T03:24:55.182Z,98484.63
2023-01-17T03:26:58.836Z,98481.00
2023-01-17T03:29:02.327Z,98483.59
2023-01-17T03:31:06.124Z,98483.59
2023-01-17T03:33:09.897Z,98485.28
2023-01-17T03:35:14.830Z,98489.47
2023-01-17T03:37:18.458Z,98481.59
2023-01-17T03:39:21.988Z,98478.91
2023-01-17T03:41:26.835Z,98484.06
2023-01-17T03:43:30.435Z,98483.13
2023-01-17T03:45:34.214Z,98479.59
2023-01-17T03:47:37.933Z,98480.44
2023-01-17T03:49:42.178Z,98482.22
2023-01-17T03:51:47.168Z,98470.13
2023-01-17T03:53:52.157Z,98480.38
2023-01-17T03:55:55.708Z,98473.41
2023-01-17T03:57:59.343Z,98475.94
2023-01-17T04:00:02.977Z,98470.72
2023-01-17T04:02:10.411Z,98479.28
2023-01-17T04:04:15.108Z,98479.28
2023-01-17T04:06:18.582Z,98481.03
2023-01-17T04:08:23.699Z,98486.31
2023-01-17T04:10:27.355Z,98480.38
2023-01-17T04:12:31.137Z,98489.09
2023-01-17T04:14:34.761Z,98490.00
2023-01-17T04:16:39.336Z,98492.59
2023-01-17T04:18:43.195Z,98488.31
2023-01-17T04:20:46.917Z,98491.00
2023-01-17T04:22:50.613Z,98490.19
2023-01-17T04:24:55.609Z,98485.88
2023-01-17T04:26:59.194Z,98500.69
2023-01-17T04:29:03.188Z,98493.00
2023-01-17T04:31:07.330Z,98496.44
2023-01-17T04:33:11.039Z,98501.66
2023-01-17T04:35:14.818Z,98500.88
2023-01-17T04:37:18.369Z,98507.75
2023-01-17T04:39:22.113Z,98497.44
2023-01-17T04:41:27.279Z,98495.69
2023-01-17T04:43:30.755Z,98504.25
2023-01-17T04:45:34.551Z,98501.56
2023-01-17T04:47:38.341Z,98495.50
2023-01-17T04:49:44.035Z,98495.50
2023-01-17T04:51:47.813Z,98501.56
2023-01-17T04:53:51.279Z,98505.91
2023-01-17T04:55:55.004Z,98511.09
2023-01-17T04:58:00.088Z,98511.94
2023-01-17T05:00:04.132Z,98510.19
2023-01-17T05:02:07.706Z,98509.34
2023-01-17T05:04:11.261Z,98516.28
2023-01-17T05:06:15.060Z,98517.16
2023-01-17T05:08:18.568Z,98513.69
2023-01-17T05:10:22.162Z,98517.16
2023-01-17T05:12:25.490Z,98513.69
2023-01-17T05:14:30.213Z,98517.97
2023-01-17T05:16:33.479Z,98518.06
2023-01-17T05:18:37.824Z,98519.84
2023-01-17T05:20:41.062Z,98511.25
2023-01-17T05:22:44.321Z,98520.81
2023-01-17T05:24:48.970Z,98519.97
2023-01-17T05:26:54.849Z,98518.31
2023-01-17T05:28:58.196Z,98522.72
2023-01-17T05:31:03.127Z,98511.59
2023-01-17T05:33:06.404Z,98511.59
2023-01-17T05:35:10.783Z,98502.13
2023-01-17T05:37:14.045Z,98502.94
2023-01-17T05:39:17.245Z,98503.13
2023-01-17T05:41:20.549Z,98506.72
2023-01-17T05:43:23.988Z,98506.06
2023-01-17T05:45:29.041Z,98507.88
2023-01-17T05:47:33.688Z,98501.84
2023-01-17T05:49:39.024Z,98507.03
2023-01-17T05:51:42.322Z,98510.47
2023-01-17T05:53:45.682Z,98506.19
2023-01-17T05:55:49.768Z,98510.47
2023-01-17T05:57:53.260Z,98517.44
2023-01-17T05:59:56.474Z,98523.44
2023-01-17T06:02:00.205Z,98519.09
2023-01-17T06:04:05.355Z,98520.78
2023-01-17T06:06:08.907Z,98522.53
2023-01-17T06:08:12.667Z,98527.75
2023-01-17T06:10:16.980Z,98531.16
2023-01-17T06:12:22.038Z,98541.56
2023-01-17T06:14:25.890Z,98526.88
2023-01-17T06:16:29.465Z,98532.03
2023-01-17T06:18:33.351Z,98542.47
2023-01-17T06:20:41.135Z,98538.22
2023-01-17T06:22:44.744Z,98539.03
2023-01-17T06:24:48.579Z,98532.16
2023-01-17T06:26:52.095Z,98533.03
2023-01-17T06:28:55.677Z,98539.88
2023-01-17T06:31:00.186Z,98540.88
2023-01-17T06:33:04.272Z,98541.63
2023-01-17T06:35:08.965Z,98538.22
2023-01-17T06:37:14.090Z,98545.13
2023-01-17T06:39:17.687Z,98548.50
2023-01-17T06:41:21.386Z,98546.75
2023-01-17T06:43:25.273Z,98543.41
2023-01-17T06:45:29.957Z,98550.25
2023-01-17T06:47:33.700Z,98543.41
2023-01-17T06:49:37.274Z,98544.22
2023-01-17T06:51:42.838Z,98555.44
2023-01-17T06:53:49.401Z,98553.72
2023-01-17T06:55:52.830Z,98559.66
2023-01-17T06:57:56.931Z,98563.09
2023-01-17T07:00:00.628Z,98563.94
2023-01-17T07:02:04.351Z,98563.03
2023-01-17T07:04:08.707Z,98568.97
2023-01-17T07:06:12.304Z,98570.56
2023-01-17T07:08:17.172Z,98573.09
2023-01-17T07:10:23.900Z,98575.59
2023-01-17T07:12:27.704Z,98584.25
2023-01-17T07:14:31.643Z,98586.00
2023-01-17T07:16:36.048Z,98579.97
2023-01-17T07:18:39.466Z,98583.47
2023-01-17T07:20:44.596Z,98588.75
2023-01-17T07:22:48.453Z,98593.94
2023-01-17T07:24:54.052Z,98590.53
2023-01-17T07:26:59.615Z,98593.19
2023-01-17T07:29:03.519Z,98601.06
2023-01-17T07:31:08.672Z,98599.38
2023-01-17T07:33:12.163Z,98598.53
2023-01-17T07:35:16.180Z,98602.06
2023-01-17T07:37:20.223Z,98603.72
2023-01-17T07:39:23.806Z,98603.66
2023-01-17T07:41:27.607Z,98608.78
2023-01-17T07:43:33.666Z,98610.38
2023-01-17T07:45:37.399Z,98615.50
2023-01-17T07:47:41.262Z,98618.94
2023-01-17T07:49:44.882Z,98618.19
2023-01-17T07:51:48.723Z,98622.69
2023-01-17T07:53:52.398Z,98631.53
2023-01-17T07:55:57.188Z,98626.63
2023-01-17T07:58:02.861Z,98627.56
2023-01-17T08:00:10.070Z,98632.00
2023-01-17T08:02:19.085Z,98632.16
2023-01-17T08:04:22.718Z,98642.63
2023-01-17T08:06:29.350Z,98645.34
2023-01-17T08:08:33.003Z,98642.06
2023-01-17T08:10:36.702Z,98644.75
2023-01-17T08:12:40.225Z,98644.88
2023-01-17T08:14:44.657Z,98644.94
2023-01-17T08:16:50.178Z,98650.31
2023-01-17T08:18:54.015Z,98646.94
2023-01-17T08:20:58.344Z,98654.78
2023-01-17T08:23:01.852Z,98658.31
2023-01-17T08:25:06.311Z,98664.25
2023-01-17T08:27:10.640Z,98667.72
2023-01-17T08:29:15.531Z,98666.19
2023-01-17T08:31:20.127Z,98659.47
2023-01-17T08:33:25.250Z,98658.84
2023-01-17T08:35:29.158Z,98660.53
2023-01-17T08:37:32.700Z,98662.97
2023-01-17T08:39:36.196Z,98660.38
2023-01-17T08:41:40.251Z,98663.63
2023-01-17T08:43:44.015Z,98667.09
2023-01-17T08:45:48.585Z,98671.22
2023-01-17T08:47:52.846Z,98669.25
2023-01-17T08:49:59.680Z,98664.66
2023-01-17T08:52:03.354Z,98659.25
2023-01-17T08:54:07.016Z,98665.13
2023-01-17T08:56:11.131Z,98673.69
2023-01-17T08:58:15.121Z,98674.44
2023-01-17T09:00:19.747Z,98673.38
2023-01-17T09:02:24.931Z,98680.97
2023-01-17T09:04:28.580Z,98678.22
2023-01-17T09:06:37.965Z,98678.91
2023-01-17T09:08:47.048Z,98675.38
2023-01-17T09:10:50.685Z,98683.94
2023-01-17T09:12:54.169Z,98689.06
2023-01-17T09:14:57.868Z,98694.09
2023-01-17T09:17:01.438Z,98694.97
2023-01-17T09:19:05.067Z,98698.31
2023-01-17T09:21:13.050Z,98706.88
2023-01-17T09:23:17.986Z,98711.28
2023-01-17T09:25:21.472Z,98727.59
2023-01-17T09:27:25.118Z,98727.34
2023-01-17T09:29:28.667Z,98730.63
2023-01-17T09:31:32.278Z,98731.34
2023-01-17T09:33:36.441Z,98733.78
2023-01-17T09:35:39.973Z,98732.72
2023-01-17T09:37:43.522Z,98739.53
2023-01-17T09:39:48.515Z,98735.06
2023-01-17T09:42:01.031Z,98743.56
2023-01-17T09:44:11.160Z,98739.13
2023-01-17T09:46:22.851Z,98746.78
2023-01-17T09:48:40.269Z,98744.94
2023-01-17T09:50:49.424Z,98743.94
2023-01-17T09:53:00.919Z,98746.47
2023-01-17T09:55:08.191Z,98744.78
2023-01-17T09:57:25.798Z,98742.94
2023-01-17T09:59:37.904Z,98755.78
2023-01-17T10:01:48.816Z,98754.72
2023-01-17T10:04:11.542Z,98758.84
2023-01-17T10:06:30.330Z,98768.16
2023-01-17T10:08:58.651Z,98773.97
2023-01-17T10:11:24.570Z,98772.66
2023-01-17T10:13:39.147Z,98771.38
2023-01-17T10:15:59.467Z,98769.88
2023-01-17T10:18:29.475Z,98773.69
2023-01-17T10:20:46.405Z,98783.38
2023-01-17T10:23:05.371Z,98780.09
2023-01-17T10:25:23.855Z,98779.53
2023-01-17T10:27:34.163Z,98782.47
2023-01-17T10:29:38.243Z,98783.84
2023-01-17T10:31:46.569Z,98793.00
2023-01-17T10:33:52.910Z,98786.72
2023-01-17T10:35:58.929Z,98784.69
2023-01-17T10:38:11.912Z,98784.44
2023-01-17T10:40:22.129Z,98780.56
2023-01-17T10:42:33.516Z,98783.66
2023-01-17T10:44:41.832Z,98797.97
2023-01-17T10:46:50.723Z,98795.00
2023-01-17T10:48:54.471Z,98798.88
2023-01-17T10:51:04.041Z,98791.59
2023-01-17T10:53:12.748Z,98804.31
2023-01-17T10:55:31.013Z,98797.22
2023-01-17T10:57:40.782Z,98797.97
2023-01-17T10:59:44.692Z,98802.19
2023-01-17T11:01:50.368Z,98804.88
2023-01-17T11:03:55.684Z,98797.72
2023-01-17T11:06:19.510Z,98801.00
2023-01-17T11:08:22.918Z,98803.41
2023-01-17T11:10:40.396Z,98801.72
2023-01-17T11:12:47.288Z,98810.22
2023-01-17T11:15:00.035Z,98807.63
2023-01-17T11:17:06.621Z,98805.94
2023-01-17T11:19:18.654Z,98802.69
2023-01-17T11:21:24.604Z,98804.53
2023-01-17T11:23:33.034Z,98800.31
2023-01-17T11:25:37.001Z,98807.31
2023-01-17T11:27:42.068Z,98807.31
2023-01-17T11:29:47.576Z,98801.28
2023-01-17T11:31:51.172Z,98802.94
2023-01-17T11:34:09.803Z,98808.22
2023-01-17T11:36:19.598Z,98805.63
2023-01-17T11:38:25.228Z,98809.00
2023-01-17T11:40:31.575Z,98802.78
2023-01-17T11:42:37.312Z,98802.78
2023-01-17T11:44:40.912Z,98802.69
2023-01-17T11:46:45.898Z,98810.50
2023-01-17T11:48:53.969Z,98804.53
2023-01-17T11:51:01.300Z,98808.00
2023-01-17T11:53:16.168Z,98803.59
2023-01-17T11:55:23.170Z,98805.44
2023-01-17T11:57:28.915Z,98802.78
2023-01-17T11:59:35.360Z,98794.28
2023-01-17T12:01:45.925Z,98797.63
2023-01-17T12:04:19.768Z,98797.63
2023-01-17T12:06:34.426Z,98797.56
2023-01-17T12:08:57.947Z,98796.69
2023-01-17T12:11:08.693Z,98793.34
2023-01-17T12:13:39.200Z,98792.50
2023-01-17T12:15:58.033Z,98796.69
2023-01-17T12:18:21.151Z,98789.78
2023-01-17T12:20:37.289Z,98786.34
2023-01-17T12:23:14.182Z,98789.06
2023-01-17T12:25:38.030Z,98784.50
2023-01-17T12:27:45.141Z,98783.75
2023-01-17T12:29:59.130Z,98793.44
2023-01-17T12:32:23.828Z,98795.28
2023-01-17T12:34:33.568Z,98798.81
2023-01-17T12:36:47.859Z,98791.00
2023-01-17T12:38:52.076Z,98786.63
2023-01-17T12:41:03.323Z,98792.78
2023-01-17T12:43:15.908Z,98791.00
2023-01-17T12:45:25.380Z,98798.72
2023-01-17T12:47:30.387Z,98808.31
2023-01-17T12:49:42.912Z,98795.19
2023-01-17T12:51:54.752Z,98802.09
2023-01-17T12:54:03.622Z,98796.97
2023-01-17T12:56:14.191Z,98803.09
2023-01-17T12:58:22.607Z,98805.81
2023-01-17T13:00:29.986Z,98799.81
2023-01-17T13:02:38.810Z,98800.78
2023-01-17T13:04:58.429Z,98806.91
2023-01-17T13:07:13.858Z,98810.63
2023-01-17T13:09:22.162Z,98808.00
2023-01-17T13:11:30.314Z,98807.16
2023-01-17T13:13:35.925Z,98808.19
2023-01-17T13:15:41.649Z,98808.25
2023-01-17T13:17:49.624Z,98809.13
2023-01-17T13:19:59.894Z,98810.84
2023-01-17T13:22:08.291Z,98801.28
2023-01-17T13:24:26.630Z,98801.38
2023-01-17T13:26:41.838Z,98799.59
2023-01-17T13:28:57.331Z,98801.47
2023-01-17T13:31:26.690Z,98807.50
2023-01-17T13:33:42.718Z,98811.91
2023-01-17T13:35:58.478Z,98815.34
2023-01-17T13:38:32.480Z,98811.81
2023-01-17T13:40:41.231Z,98812.63
2023-01-17T13:42:55.047Z,98809.94
2023-01-17T13:44:59.298Z,98816.00
2023-01-17T13:47:06.681Z,98812.47
2023-01-17T13:49:34.270Z,98816.75
2023-01-17T13:52:10.803Z,98815.75
2023-01-17T13:54:32.734Z,98818.25
2023-01-17T13:56:37.742Z,98819.94
2023-01-17T13:58:58.525Z,98818.16
2023-01-17T14:01:02.149Z,98819.75
2023-01-17T14:03:06.165Z,98816.25
2023-01-17T14:05:12.508Z,98819.59
2023-01-17T14:07:26.881Z,98820.34
2023-01-17T14:09:42.738Z,98816.72
2023-01-17T14:11:58.858Z,98810.50
2023-01-17T14:14:35.499Z,98805.09
2023-01-17T14:16:39.192Z,98820.56
2023-01-17T14:18:45.163Z,98819.66
2023-01-17T14:21:09.032Z,98816.84
2023-01-17T14:23:22.806Z,98817.53
2023-01-17T14:25:30.490Z,98820.03
2023-01-17T14:27:35.530Z,98815.56
2023-01-17T14:29:53.957Z,98819.75
2023-01-17T14:32:03.007Z,98818.03
2023-01-17T14:34:14.252Z,98812.78
2023-01-17T14:36:26.283Z,98818.03
2023-01-17T14:38:31.827Z,98813.63
2023-01-17T14:40:40.121Z,98817.16
2023-01-17T14:42:44.558Z,98821.44
2023-01-17T14:44:50.809Z,98823.22
2023-01-17T14:46:54.739Z,98834.50
2023-01-17T14:49:02.757Z,98824.91
2023-01-17T14:51:20.393Z,98830.97
2023-01-17T14:53:28.370Z,98819.63
2023-01-17T14:55:32.129Z,98820.53
2023-01-17T14:57:37.329Z,98813.63
2023-01-17T14:59:40.956Z,98802.38
2023-01-17T15:01:58.123Z,98819.66
2023-01-17T15:04:25.545Z,98817.06
2023-01-17T15:06:34.413Z,98816.25
2023-01-17T15:08:38.130Z,98818.84
2023-01-17T15:10:51.849Z,98813.63
2023-01-17T15:13:06.467Z,98818.84
2023-01-17T15:15:27.995Z,98824.91
2023-01-17T15:17:31.681Z,98822.22
2023-01-17T15:19:43.350Z,98827.44
2023-01-17T15:21:50.851Z,98833.47
2023-01-17T15:23:58.017Z,98842.13
2023-01-17T15:26:03.347Z,98834.31
2023-01-17T15:28:13.709Z,98840.38
2023-01-17T15:30:18.398Z,98842.03
2023-01-17T15:32:24.471Z,98846.34
2023-01-17T15:34:30.644Z,98847.09
2023-01-17T15:36:35.424Z,98835.81
2023-01-17T15:38:49.638Z,98829.75
2023-01-17T15:40:53.535Z,98836.78
2023-01-17T15:43:02.001Z,98836.00
2023-01-17T15:45:15.697Z,98836.09
2023-01-17T15:47:30.695Z,98842.22
2023-01-17T15:49:34.620Z,98836.19
2023-01-17T15:51:41.774Z,98843.16
2023-01-17T15:53:45.313Z,98842.41
2023-01-17T15:55:49.328Z,98840.72
2023-01-17T15:57:53.679Z,98835.69
2023-01-17T16:00:01.823Z,98842.69
2023-01-17T16:02:27.596Z,98839.41
2023-01-17T16:04:37.369Z,98839.59
2023-01-17T16:06:45.890Z,98838.00
2023-01-17T16:08:54.037Z,98839.00
2023-01-17T16:11:02.468Z,98840.84
2023-01-17T16:13:08.796Z,98833.97
2023-01-17T16:15:13.626Z,98835.06
2023-01-17T16:17:19.695Z,98838.59
2023-01-17T16:19:23.338Z,98838.59
2023-01-17T16:21:28.332Z,98836.91
2023-01-17T16:23:31.902Z,98836.19
2023-01-17T16:25:35.626Z,98846.66
2023-01-17T16:27:41.678Z,98849.38
2023-01-17T16:29:45.294Z,98847.72
2023-01-17T16:31:48.909Z,98853.84
2023-01-17T16:33:54.137Z,98850.47
2023-01-17T16:35:57.898Z,98854.03
2023-01-17T16:38:03.759Z,98864.50
2023-01-17T16:40:08.809Z,98860.34
2023-01-17T16:42:13.446Z,98860.41
2023-01-17T16:44:17.004Z,98854.44
2023-01-17T16:46:23.871Z,98862.34
2023-01-17T16:48:27.644Z,98867.56
2023-01-17T16:50:32.896Z,98867.66
2023-01-17T16:52:36.562Z,98869.50
2023-01-17T16:54:40.335Z,98880.00
2023-01-17T16:56:44.020Z,98883.53
2023-01-17T16:58:47.665Z,98894.91
2023-01-17T17:00:51.302Z,98894.13
2023-01-17T17:02:55.547Z,98905.56
2023-01-17T17:04:59.300Z,98914.28
2023-01-17T17:07:04.378Z,98903.22
2023-01-17T17:09:07.897Z,98897.31
2023-01-17T17:11:16.698Z,98901.78
2023-01-17T17:13:20.502Z,98907.00
2023-01-17T17:15:24.386Z,98911.53
2023-01-17T17:17:27.935Z,98917.66
2023-01-17T17:19:31.640Z,98918.66
2023-01-17T17:21:37.763Z,98910.91
2023-01-17T17:23:42.959Z,98905.88
2023-01-17T17:25:46.581Z,98912.00
2023-01-17T17:27:50.614Z,98904.28
2023-01-17T17:29:54.387Z,98912.19
2023-01-17T17:31:57.853Z,98911.41
2023-01-17T17:34:02.114Z,98909.75
2023-01-17T17:36:07.946Z,98917.66
2023-01-17T17:38:11.591Z,98921.16
2023-01-17T17:40:17.167Z,98923.00
2023-01-17T17:42:21.000Z,98930.81
2023-01-17T17:44:24.675Z,98932.59
2023-01-17T17:46:29.524Z,98929.97
2023-01-17T17:48:34.344Z,98926.53
2023-01-17T17:50:38.111Z,98929.16
2023-01-17T17:52:44.433Z,98931.75
2023-01-17T17:54:49.030Z,98936.09
2023-01-17T17:56:54.324Z,98933.50
2023-01-17T17:58:58.199Z,98934.41
2023-01-17T18:01:05.353Z,98934.50
2023-01-17T18:03:09.167Z,98933.66
2023-01-17T18:05:12.957Z,98937.09
2023-01-17T18:07:16.994Z,98936.28
2023-01-17T18:09:21.088Z,98945.00
2023-01-17T18:11:26.269Z,98946.69
2023-01-17T18:13:32.171Z,98950.22
2023-01-17T18:15:36.130Z,98945.00
2023-01-17T18:17:39.884Z,98947.78
2023-01-17T18:19:46.286Z,98948.69
2023-01-17T18:21:51.638Z,98959.09
2023-01-17T18:23:57.145Z,98971.38
2023-01-17T18:26:00.730Z,98969.69
2023-01-17T18:28:04.640Z,98971.44
2023-01-17T18:30:12.790Z,98981.03
2023-01-17T18:32:16.365Z,98975.81
2023-01-17T18:34:23.300Z,98980.09
2023-01-17T18:36:28.815Z,98968.00
2023-01-17T18:38:38.257Z,98975.81
2023-01-17T18:40:41.847Z,98982.78
2023-01-17T18:42:45.331Z,98980.19
2023-01-17T18:44:49.094Z,98975.06
2023-01-17T18:46:54.756Z,98975.06
2023-01-17T18:48:58.880Z,98978.59
2023-01-17T18:51:05.550Z,98987.31
2023-01-17T18:53:09.187Z,98986.47
2023-01-17T18:55:12.789Z,98973.47
2023-01-17T18:57:16.558Z,98970.84
2023-01-17T18:59:21.657Z,98966.47
2023-01-17T19:01:26.945Z,98965.66
2023-01-17T19:03:32.145Z,98971.69
2023-01-17T19:05:37.513Z,98966.47
2023-01-17T19:07:41.628Z,98964.78
2023-01-17T19:09:45.391Z,98975.19
2023-01-17T19:11:48.913Z,98974.38
2023-01-17T19:13:53.583Z,98970.00
2023-01-17T19:16:01.132Z,98976.88
2023-01-17T19:18:05.027Z,98989.00
2023-01-17T19:20:12.690Z,98987.16
2023-01-17T19:22:16.510Z,98977.50
2023-01-17T19:24:21.084Z,98987.00
2023-01-17T19:26:27.430Z,98993.88
2023-01-17T19:28:31.223Z,98986.94
2023-01-17T19:30:34.879Z,98983.47
2023-01-17T19:32:38.415Z,98984.31
2023-01-17T19:34:42.146Z,98994.75
2023-01-17T19:36:47.766Z,98997.25
2023-01-17T19:39:03.454Z,98981.63
2023-01-17T19:41:13.430Z,98983.31
2023-01-17T19:43:18.471Z,98976.44
2023-01-17T19:45:22.222Z,98985.97
2023-01-17T19:47:25.963Z,98985.16
2023-01-17T19:49:29.623Z,98983.47
2023-01-17T19:51:33.457Z,98980.84
2023-01-17T19:53:40.197Z,98973.03
2023-01-17T19:55:44.029Z,98976.59
2023-01-17T19:57:49.150Z,98971.38
2023-01-17T19:59:53.405Z,98974.00
2023-01-17T20:01:57.525Z,98979.19
2023-01-17T20:04:03.303Z,98974.91
2023-01-17T20:06:08.532Z,98980.09
2023-01-17T20:08:13.581Z,98990.53
2023-01-17T20:10:21.428Z,98987.00
2023-01-17T20:12:25.578Z,98986.06
2023-01-17T20:14:29.700Z,98981.81
2023-01-17T20:16:34.928Z,98980.09
2023-01-17T20:18:40.023Z,98979.34
2023-01-17T20:20:56.549Z,98980.28
2023-01-17T20:23:01.600Z,98976.88
2023-01-17T20:25:06.159Z,98983.88
2023-01-17T20:27:12.048Z,98983.09
2023-01-17T20:29:18.749Z,98976.19
2023-01-17T20:31:24.978Z,98980.56
2023-01-17T20:33:29.836Z,98973.66
2023-01-17T20:35:34.758Z,98968.47
2023-01-17T20:37:39.350Z,98970.97
2023-01-17T20:39:43.656Z,98962.25
2023-01-17T20:41:50.177Z,98968.31
2023-01-17T20:43:59.114Z,98965.72
2023-01-17T20:46:05.030Z,98959.56
2023-01-17T20:48:09.119Z,98965.66
2023-01-17T20:50:13.672Z,98966.56
2023-01-17T20:52:17.800Z,98988.13
2023-01-17T20:54:23.825Z,98978.59
2023-01-17T20:56:30.287Z,98970.59
2023-01-17T20:58:35.034Z,98978.41
2023-01-17T21:00:41.138Z,98973.13
2023-01-17T21:02:45.694Z,98988.66
2023-01-17T21:04:49.927Z,98970.44
2023-01-17T21:06:54.923Z,98977.34
2023-01-17T21:09:00.502Z,98969.53
2023-01-17T21:11:05.394Z,98973.91
2023-01-17T21:13:09.184Z,98979.03
2023-01-17T21:15:17.705Z,98974.72
2023-01-17T21:17:23.314Z,98973.91
2023-01-17T21:19:27.592Z,98972.22
2023-01-17T21:21:31.573Z,98971.31
2023-01-17T21:23:35.918Z,98969.53
2023-01-17T21:25:40.193Z,98972.03
2023-01-17T21:27:43.843Z,98974.66
2023-01-17T21:29:48.208Z,98975.56
2023-01-17T21:31:52.658Z,98983.31
2023-01-17T21:34:00.399Z,98967.75
2023-01-17T21:36:09.444Z,98969.53
2023-01-17T21:38:14.309Z,98964.31
2023-01-17T21:40:19.947Z,98972.13
2023-01-17T21:42:26.873Z,98983.47
2023-01-17T21:44:36.359Z,98982.72
2023-01-17T21:46:41.748Z,98982.78
2023-01-17T21:48:45.773Z,98983.63
2023-01-17T21:50:52.696Z,98991.53
2023-01-17T21:52:56.325Z,98987.16
2023-01-17T21:55:17.622Z,98999.16
2023-01-17T21:57:40.359Z,98995.75
2023-01-17T21:59:44.231Z,99008.59
2023-01-17T22:01:47.797Z,99023.31
2023-01-17T22:03:53.542Z,99027.59
2023-01-17T22:05:58.641Z,99021.38
2023-01-17T22:08:15.372Z,99019.63
2023-01-17T22:10:19.782Z,99024.69
2023-01-17T22:12:23.525Z,99022.84
2023-01-17T22:14:27.242Z,99031.41
2023-01-17T22:16:31.047Z,99017.47
2023-01-17T22:18:37.349Z,99027.91
2023-01-17T22:20:42.036Z,99022.69
2023-01-17T22:22:48.346Z,99027.06
2023-01-17T22:24:52.109Z,99022.69
2023-01-17T22:26:55.704Z,99028.72
2023-01-17T22:29:02.723Z,99027.91
2023-01-17T22:31:11.176Z,99040.09
2023-01-17T22:33:15.003Z,99047.91
2023-01-17T22:35:18.650Z,99041.84
2023-01-17T22:37:22.211Z,99037.50
2023-01-17T22:39:27.192Z,99053.16
2023-01-17T22:41:33.086Z,99055.03
2023-01-17T22:43:39.400Z,99051.59
2023-01-17T22:45:43.189Z,99056.84
2023-01-17T22:47:46.700Z,99065.53
2023-01-17T22:49:50.322Z,99068.22
2023-01-17T22:51:54.126Z,99063.91
2023-01-17T22:53:59.807Z,99069.03
2023-01-17T22:56:07.943Z,99074.09
2023-01-17T22:58:11.500Z,99063.66
2023-01-17T23:00:16.356Z,99062.84
2023-01-17T23:02:21.057Z,99057.63
2023-01-17T23:04:24.909Z,99060.16
2023-01-17T23:06:30.560Z,99055.84
2023-01-17T23:08:34.125Z,99047.06
2023-01-17T23:10:54.999Z,99045.31
2023-01-17T23:13:00.179Z,99050.44
2023-01-17T23:15:21.050Z,99047.75
2023-01-17T23:17:43.308Z,99043.38
2023-01-17T23:19:49.610Z,99035.47
2023-01-17T23:22:11.990Z,99029.44
2023-01-17T23:24:15.826Z,99032.78
2023-01-17T23:26:19.440Z,99024.13
2023-01-17T23:28:23.616Z,99031.88
2023-01-17T23:30:29.310Z,99017.94
2023-01-17T23:32:33.055Z,99010.09
2023-01-17T23:34:36.618Z,99012.63
2023-01-17T23:36:40.195Z,99005.63
2023-01-17T23:38:44.373Z,99011.72
2023-01-17T23:41:08.855Z,99013.47
2023-01-17T23:43:23.779Z,99016.94
2023-01-17T23:45:28.917Z,99024.66
2023-01-17T23:47:32.501Z,99027.25
2023-01-17T23:49:36.182Z,99029.03
2023-01-17T23:51:39.672Z,99033.31
2023-01-17T23:53:43.342Z,99040.22
2023-01-17T23:55:47.111Z,99048.81
2023-01-17T23:57:51.734Z,99050.47
2023-01-17T23:59:55.430Z,99053.00
